sensor_id;sensor_type;location;lat;lon;timestamp;P1;durP1;ratioP1;P2;durP2;ratioP2
24157;SDS011;12316;50.904;4.200;2024-02-15T00:00:03;13.80;;;5.18;;
24157;SDS011;12316;50.904;4.200;2024-02-15T00:02:29;14.77;;;5.30;;
24157;SDS011;12316;50.904;4.200;2024-02-15T00:04:55;13.52;;;5.22;;
24157;SDS011;12316;50.904;4.200;2024-02-15T00:07:22;16.08;;;6.35;;
24157;SDS011;12316;50.904;4.200;2024-02-15T00:09:48;19.48;;;5.97;;
24157;SDS011;12316;50.904;4.200;2024-02-15T00:12:14;16.83;;;6.72;;
24157;SDS011;12316;50.904;4.200;2024-02-15T00:14:40;18.17;;;6.70;;
24157;SDS011;12316;50.904;4.200;2024-02-15T00:17:05;17.52;;;7.22;;
24157;SDS011;12316;50.904;4.200;2024-02-15T00:19:32;19.30;;;6.57;;
24157;SDS011;12316;50.904;4.200;2024-02-15T00:21:58;17.23;;;7.03;;
24157;SDS011;12316;50.904;4.200;2024-02-15T00:24:23;21.80;;;7.47;;
24157;SDS011;12316;50.904;4.200;2024-02-15T00:26:49;20.00;;;6.80;;
24157;SDS011;12316;50.904;4.200;2024-02-15T00:29:15;17.67;;;6.75;;
24157;SDS011;12316;50.904;4.200;2024-02-15T00:31:40;22.70;;;7.40;;
24157;SDS011;12316;50.904;4.200;2024-02-15T00:34:06;19.35;;;7.10;;
24157;SDS011;12316;50.904;4.200;2024-02-15T00:36:32;20.38;;;8.23;;
24157;SDS011;12316;50.904;4.200;2024-02-15T00:38:58;19.65;;;7.35;;
24157;SDS011;12316;50.904;4.200;2024-02-15T00:41:24;18.38;;;7.47;;
24157;SDS011;12316;50.904;4.200;2024-02-15T00:43:50;23.42;;;6.88;;
24157;SDS011;12316;50.904;4.200;2024-02-15T00:46:16;22.70;;;7.50;;
24157;SDS011;12316;50.904;4.200;2024-02-15T00:48:42;22.23;;;7.47;;
24157;SDS011;12316;50.904;4.200;2024-02-15T00:51:08;17.42;;;7.38;;
24157;SDS011;12316;50.904;4.200;2024-02-15T00:53:33;20.52;;;7.32;;
24157;SDS011;12316;50.904;4.200;2024-02-15T00:56:00;21.90;;;7.60;;
24157;SDS011;12316;50.904;4.200;2024-02-15T00:58:26;24.70;;;7.78;;
24157;SDS011;12316;50.904;4.200;2024-02-15T01:00:52;17.60;;;7.38;;
24157;SDS011;12316;50.904;4.200;2024-02-15T01:03:18;21.95;;;7.93;;
24157;SDS011;12316;50.904;4.200;2024-02-15T01:05:44;20.05;;;7.10;;
24157;SDS011;12316;50.904;4.200;2024-02-15T01:08:10;21.88;;;7.00;;
24157;SDS011;12316;50.904;4.200;2024-02-15T01:10:36;19.88;;;7.78;;
24157;SDS011;12316;50.904;4.200;2024-02-15T01:13:02;21.58;;;7.28;;
24157;SDS011;12316;50.904;4.200;2024-02-15T01:15:28;21.40;;;7.18;;
24157;SDS011;12316;50.904;4.200;2024-02-15T01:17:54;20.27;;;6.97;;
24157;SDS011;12316;50.904;4.200;2024-02-15T01:20:20;17.88;;;6.70;;
24157;SDS011;12316;50.904;4.200;2024-02-15T01:22:46;17.25;;;6.55;;
24157;SDS011;12316;50.904;4.200;2024-02-15T01:25:12;16.92;;;6.53;;
24157;SDS011;12316;50.904;4.200;2024-02-15T01:27:40;19.70;;;6.32;;
24157;SDS011;12316;50.904;4.200;2024-02-15T01:30:05;15.68;;;6.45;;
24157;SDS011;12316;50.904;4.200;2024-02-15T01:32:33;21.75;;;6.53;;
24157;SDS011;12316;50.904;4.200;2024-02-15T01:34:59;17.70;;;6.03;;
24157;SDS011;12316;50.904;4.200;2024-02-15T01:37:24;18.73;;;6.03;;
24157;SDS011;12316;50.904;4.200;2024-02-15T01:39:50;16.83;;;6.03;;
24157;SDS011;12316;50.904;4.200;2024-02-15T01:42:16;16.45;;;5.93;;
24157;SDS011;12316;50.904;4.200;2024-02-15T01:44:42;21.92;;;6.43;;
24157;SDS011;12316;50.904;4.200;2024-02-15T01:47:12;16.55;;;5.70;;
24157;SDS011;12316;50.904;4.200;2024-02-15T01:49:38;17.27;;;6.38;;
24157;SDS011;12316;50.904;4.200;2024-02-15T01:52:06;16.38;;;5.88;;
24157;SDS011;12316;50.904;4.200;2024-02-15T01:54:33;19.13;;;5.53;;
24157;SDS011;12316;50.904;4.200;2024-02-15T01:57:01;16.25;;;5.03;;
24157;SDS011;12316;50.904;4.200;2024-02-15T01:59:28;14.13;;;5.25;;
24157;SDS011;12316;50.904;4.200;2024-02-15T02:01:54;14.07;;;5.25;;
24157;SDS011;12316;50.904;4.200;2024-02-15T02:04:20;15.73;;;5.55;;
24157;SDS011;12316;50.904;4.200;2024-02-15T02:06:47;13.32;;;4.68;;
24157;SDS011;12316;50.904;4.200;2024-02-15T02:09:13;14.60;;;5.15;;
24157;SDS011;12316;50.904;4.200;2024-02-15T02:11:41;15.25;;;5.35;;
24157;SDS011;12316;50.904;4.200;2024-02-15T02:14:10;13.65;;;5.15;;
24157;SDS011;12316;50.904;4.200;2024-02-15T02:16:36;16.58;;;4.93;;
24157;SDS011;12316;50.904;4.200;2024-02-15T02:19:04;13.32;;;5.57;;
24157;SDS011;12316;50.904;4.200;2024-02-15T02:21:34;14.90;;;5.28;;
24157;SDS011;12316;50.904;4.200;2024-02-15T02:24:02;15.18;;;5.20;;
24157;SDS011;12316;50.904;4.200;2024-02-15T02:26:33;13.60;;;5.60;;
24157;SDS011;12316;50.904;4.200;2024-02-15T02:28:59;11.93;;;4.70;;
24157;SDS011;12316;50.904;4.200;2024-02-15T02:31:26;14.98;;;5.20;;
24157;SDS011;12316;50.904;4.200;2024-02-15T02:33:52;15.65;;;5.53;;
24157;SDS011;12316;50.904;4.200;2024-02-15T02:36:19;12.30;;;5.22;;
24157;SDS011;12316;50.904;4.200;2024-02-15T02:38:45;14.13;;;5.35;;
24157;SDS011;12316;50.904;4.200;2024-02-15T02:41:11;14.00;;;5.10;;
24157;SDS011;12316;50.904;4.200;2024-02-15T02:43:40;13.93;;;5.50;;
24157;SDS011;12316;50.904;4.200;2024-02-15T02:46:06;13.48;;;5.32;;
24157;SDS011;12316;50.904;4.200;2024-02-15T02:48:35;19.30;;;5.13;;
24157;SDS011;12316;50.904;4.200;2024-02-15T02:51:01;13.50;;;5.22;;
24157;SDS011;12316;50.904;4.200;2024-02-15T02:53:27;15.60;;;5.30;;
24157;SDS011;12316;50.904;4.200;2024-02-15T02:55:54;12.63;;;5.38;;
24157;SDS011;12316;50.904;4.200;2024-02-15T02:58:21;13.40;;;5.20;;
24157;SDS011;12316;50.904;4.200;2024-02-15T03:00:48;15.43;;;5.18;;
24157;SDS011;12316;50.904;4.200;2024-02-15T03:03:14;12.45;;;5.03;;
24157;SDS011;12316;50.904;4.200;2024-02-15T03:05:41;16.77;;;5.38;;
24157;SDS011;12316;50.904;4.200;2024-02-15T03:08:11;14.45;;;5.07;;
24157;SDS011;12316;50.904;4.200;2024-02-15T03:10:38;14.23;;;5.43;;
24157;SDS011;12316;50.904;4.200;2024-02-15T03:13:04;12.80;;;5.35;;
24157;SDS011;12316;50.904;4.200;2024-02-15T03:15:30;15.80;;;6.00;;
24157;SDS011;12316;50.904;4.200;2024-02-15T03:17:58;12.98;;;5.38;;
24157;SDS011;12316;50.904;4.200;2024-02-15T03:20:23;16.95;;;5.85;;
24157;SDS011;12316;50.904;4.200;2024-02-15T03:22:53;14.70;;;5.57;;
24157;SDS011;12316;50.904;4.200;2024-02-15T03:25:19;15.00;;;5.47;;
24157;SDS011;12316;50.904;4.200;2024-02-15T03:27:48;12.65;;;5.57;;
24157;SDS011;12316;50.904;4.200;2024-02-15T03:30:16;16.75;;;6.55;;
24157;SDS011;12316;50.904;4.200;2024-02-15T03:32:42;15.05;;;6.07;;
24157;SDS011;12316;50.904;4.200;2024-02-15T03:35:08;17.70;;;6.63;;
24157;SDS011;12316;50.904;4.200;2024-02-15T03:37:34;13.20;;;6.18;;
24157;SDS011;12316;50.904;4.200;2024-02-15T03:40:02;15.18;;;6.07;;
24157;SDS011;12316;50.904;4.200;2024-02-15T03:42:29;15.57;;;6.57;;
24157;SDS011;12316;50.904;4.200;2024-02-15T03:44:55;13.95;;;5.47;;
24157;SDS011;12316;50.904;4.200;2024-02-15T03:47:21;12.73;;;5.15;;
24157;SDS011;12316;50.904;4.200;2024-02-15T03:49:46;15.73;;;5.57;;
24157;SDS011;12316;50.904;4.200;2024-02-15T03:52:13;12.68;;;5.07;;
24157;SDS011;12316;50.904;4.200;2024-02-15T03:54:40;10.38;;;4.70;;
24157;SDS011;12316;50.904;4.200;2024-02-15T03:57:08;11.82;;;5.13;;
24157;SDS011;12316;50.904;4.200;2024-02-15T03:59:33;12.15;;;5.15;;
24157;SDS011;12316;50.904;4.200;2024-02-15T04:02:00;11.85;;;4.90;;
24157;SDS011;12316;50.904;4.200;2024-02-15T04:04:28;12.35;;;4.70;;
24157;SDS011;12316;50.904;4.200;2024-02-15T04:06:55;10.68;;;4.68;;
24157;SDS011;12316;50.904;4.200;2024-02-15T04:09:21;13.85;;;5.10;;
24157;SDS011;12316;50.904;4.200;2024-02-15T04:11:47;11.73;;;4.50;;
24157;SDS011;12316;50.904;4.200;2024-02-15T04:14:17;10.50;;;4.38;;
24157;SDS011;12316;50.904;4.200;2024-02-15T04:16:43;11.13;;;3.80;;
24157;SDS011;12316;50.904;4.200;2024-02-15T04:19:11;13.27;;;4.28;;
24157;SDS011;12316;50.904;4.200;2024-02-15T04:21:36;11.23;;;3.80;;
24157;SDS011;12316;50.904;4.200;2024-02-15T04:24:04;10.70;;;4.05;;
24157;SDS011;12316;50.904;4.200;2024-02-15T04:26:30;11.05;;;4.20;;
24157;SDS011;12316;50.904;4.200;2024-02-15T04:28:57;9.98;;;3.90;;
24157;SDS011;12316;50.904;4.200;2024-02-15T04:31:23;12.23;;;3.90;;
24157;SDS011;12316;50.904;4.200;2024-02-15T04:33:54;10.05;;;3.90;;
24157;SDS011;12316;50.904;4.200;2024-02-15T04:36:21;12.25;;;3.95;;
24157;SDS011;12316;50.904;4.200;2024-02-15T04:38:51;11.30;;;4.43;;
24157;SDS011;12316;50.904;4.200;2024-02-15T04:41:17;14.13;;;5.32;;
24157;SDS011;12316;50.904;4.200;2024-02-15T04:43:50;17.38;;;5.60;;
24157;SDS011;12316;50.904;4.200;2024-02-15T04:46:18;15.25;;;5.60;;
24157;SDS011;12316;50.904;4.200;2024-02-15T04:48:47;17.65;;;5.82;;
24157;SDS011;12316;50.904;4.200;2024-02-15T04:51:16;19.13;;;5.80;;
24157;SDS011;12316;50.904;4.200;2024-02-15T04:53:42;15.25;;;6.15;;
24157;SDS011;12316;50.904;4.200;2024-02-15T04:56:11;15.82;;;5.63;;
24157;SDS011;12316;50.904;4.200;2024-02-15T04:58:42;16.15;;;5.72;;
24157;SDS011;12316;50.904;4.200;2024-02-15T05:01:14;13.60;;;5.18;;
24157;SDS011;12316;50.904;4.200;2024-02-15T05:03:43;17.95;;;5.18;;
24157;SDS011;12316;50.904;4.200;2024-02-15T05:06:09;15.43;;;4.90;;
24157;SDS011;12316;50.904;4.200;2024-02-15T05:08:37;15.90;;;5.45;;
24157;SDS011;12316;50.904;4.200;2024-02-15T05:11:07;15.25;;;4.97;;
24157;SDS011;12316;50.904;4.200;2024-02-15T05:16:06;10.10;;;4.75;;
24157;SDS011;12316;50.904;4.200;2024-02-15T05:18:31;15.60;;;5.47;;
24157;SDS011;12316;50.904;4.200;2024-02-15T05:20:59;13.45;;;4.82;;
24157;SDS011;12316;50.904;4.200;2024-02-15T05:23:27;12.90;;;4.40;;
24157;SDS011;12316;50.904;4.200;2024-02-15T05:25:52;14.40;;;4.70;;
24157;SDS011;12316;50.904;4.200;2024-02-15T05:28:19;13.52;;;4.90;;
24157;SDS011;12316;50.904;4.200;2024-02-15T05:31:07;12.63;;;4.18;;
24157;SDS011;12316;50.904;4.200;2024-02-15T05:33:37;10.40;;;4.20;;
24157;SDS011;12316;50.904;4.200;2024-02-15T05:36:10;12.10;;;3.95;;
24157;SDS011;12316;50.904;4.200;2024-02-15T05:38:36;13.57;;;4.32;;
24157;SDS011;12316;50.904;4.200;2024-02-15T05:41:02;12.93;;;4.22;;
24157;SDS011;12316;50.904;4.200;2024-02-15T05:43:28;9.32;;;3.75;;
24157;SDS011;12316;50.904;4.200;2024-02-15T05:45:55;14.43;;;4.10;;
24157;SDS011;12316;50.904;4.200;2024-02-15T05:48:26;11.60;;;4.10;;
24157;SDS011;12316;50.904;4.200;2024-02-15T05:50:53;13.65;;;3.80;;
24157;SDS011;12316;50.904;4.200;2024-02-15T05:53:20;12.75;;;3.72;;
24157;SDS011;12316;50.904;4.200;2024-02-15T05:55:46;12.20;;;3.72;;
24157;SDS011;12316;50.904;4.200;2024-02-15T05:58:14;10.63;;;3.70;;
24157;SDS011;12316;50.904;4.200;2024-02-15T06:00:40;8.93;;;3.22;;
24157;SDS011;12316;50.904;4.200;2024-02-15T06:03:06;11.85;;;3.60;;
24157;SDS011;12316;50.904;4.200;2024-02-15T06:05:34;8.80;;;3.10;;
24157;SDS011;12316;50.904;4.200;2024-02-15T06:08:00;8.98;;;2.90;;
24157;SDS011;12316;50.904;4.200;2024-02-15T06:10:26;9.38;;;3.20;;
24157;SDS011;12316;50.904;4.200;2024-02-15T06:12:52;8.70;;;3.30;;
24157;SDS011;12316;50.904;4.200;2024-02-15T06:15:18;8.77;;;3.25;;
24157;SDS011;12316;50.904;4.200;2024-02-15T06:17:44;8.60;;;3.25;;
24157;SDS011;12316;50.904;4.200;2024-02-15T06:20:11;9.85;;;3.15;;
24157;SDS011;12316;50.904;4.200;2024-02-15T06:22:40;12.18;;;3.92;;
24157;SDS011;12316;50.904;4.200;2024-02-15T06:25:06;11.45;;;4.00;;
24157;SDS011;12316;50.904;4.200;2024-02-15T06:27:32;8.77;;;3.88;;
24157;SDS011;12316;50.904;4.200;2024-02-15T06:29:58;10.00;;;4.00;;
24157;SDS011;12316;50.904;4.200;2024-02-15T06:32:42;8.95;;;3.35;;
24157;SDS011;12316;50.904;4.200;2024-02-15T06:35:26;11.20;;;3.58;;
24157;SDS011;12316;50.904;4.200;2024-02-15T06:38:10;9.20;;;3.33;;
24157;SDS011;12316;50.904;4.200;2024-02-15T06:40:55;8.57;;;3.47;;
24157;SDS011;12316;50.904;4.200;2024-02-15T06:43:20;9.82;;;3.72;;
24157;SDS011;12316;50.904;4.200;2024-02-15T06:45:46;11.23;;;3.88;;
24157;SDS011;12316;50.904;4.200;2024-02-15T06:48:14;11.35;;;3.42;;
24157;SDS011;12316;50.904;4.200;2024-02-15T06:50:40;10.98;;;3.40;;
24157;SDS011;12316;50.904;4.200;2024-02-15T06:53:06;8.93;;;3.10;;
24157;SDS011;12316;50.904;4.200;2024-02-15T06:55:33;10.10;;;3.60;;
24157;SDS011;12316;50.904;4.200;2024-02-15T06:57:59;10.90;;;3.65;;
24157;SDS011;12316;50.904;4.200;2024-02-15T07:00:25;12.77;;;3.53;;
24157;SDS011;12316;50.904;4.200;2024-02-15T07:02:50;7.47;;;3.30;;
24157;SDS011;12316;50.904;4.200;2024-02-15T07:05:16;10.77;;;3.53;;
24157;SDS011;12316;50.904;4.200;2024-02-15T07:07:42;9.32;;;3.75;;
24157;SDS011;12316;50.904;4.200;2024-02-15T07:10:08;7.72;;;3.28;;
24157;SDS011;12316;50.904;4.200;2024-02-15T07:12:35;8.23;;;3.28;;
24157;SDS011;12316;50.904;4.200;2024-02-15T07:15:03;8.57;;;3.42;;
24157;SDS011;12316;50.904;4.200;2024-02-15T07:17:31;8.07;;;3.05;;
24157;SDS011;12316;50.904;4.200;2024-02-15T07:19:57;8.65;;;3.30;;
24157;SDS011;12316;50.904;4.200;2024-02-15T07:22:23;10.30;;;3.83;;
24157;SDS011;12316;50.904;4.200;2024-02-15T07:24:49;10.32;;;3.22;;
24157;SDS011;12316;50.904;4.200;2024-02-15T07:27:15;6.88;;;2.97;;
24157;SDS011;12316;50.904;4.200;2024-02-15T07:29:40;8.45;;;3.17;;
24157;SDS011;12316;50.904;4.200;2024-02-15T07:32:06;7.18;;;3.15;;
24157;SDS011;12316;50.904;4.200;2024-02-15T07:34:34;9.75;;;3.03;;
24157;SDS011;12316;50.904;4.200;2024-02-15T07:37:01;8.27;;;3.30;;
24157;SDS011;12316;50.904;4.200;2024-02-15T07:39:27;8.98;;;3.38;;
24157;SDS011;12316;50.904;4.200;2024-02-15T07:41:56;8.27;;;3.28;;
24157;SDS011;12316;50.904;4.200;2024-02-15T07:44:23;7.32;;;3.20;;
24157;SDS011;12316;50.904;4.200;2024-02-15T07:46:49;9.15;;;3.60;;
24157;SDS011;12316;50.904;4.200;2024-02-15T07:49:15;14.45;;;3.40;;
24157;SDS011;12316;50.904;4.200;2024-02-15T07:51:42;10.68;;;3.78;;
24157;SDS011;12316;50.904;4.200;2024-02-15T07:54:08;9.55;;;3.50;;
24157;SDS011;12316;50.904;4.200;2024-02-15T07:56:36;10.32;;;4.57;;
24157;SDS011;12316;50.904;4.200;2024-02-15T07:59:01;10.00;;;4.82;;
24157;SDS011;12316;50.904;4.200;2024-02-15T08:01:27;10.82;;;4.47;;
24157;SDS011;12316;50.904;4.200;2024-02-15T08:03:56;14.00;;;5.25;;
24157;SDS011;12316;50.904;4.200;2024-02-15T08:06:22;11.35;;;5.55;;
24157;SDS011;12316;50.904;4.200;2024-02-15T08:08:53;15.68;;;5.97;;
24157;SDS011;12316;50.904;4.200;2024-02-15T08:11:18;13.63;;;6.82;;
24157;SDS011;12316;50.904;4.200;2024-02-15T08:13:49;12.52;;;6.20;;
24157;SDS011;12316;50.904;4.200;2024-02-15T08:16:19;14.43;;;6.63;;
24157;SDS011;12316;50.904;4.200;2024-02-15T08:18:52;16.50;;;7.20;;
24157;SDS011;12316;50.904;4.200;2024-02-15T08:21:26;15.88;;;6.40;;
24157;SDS011;12316;50.904;4.200;2024-02-15T08:23:55;15.38;;;7.70;;
24157;SDS011;12316;50.904;4.200;2024-02-15T08:26:21;19.65;;;7.32;;
24157;SDS011;12316;50.904;4.200;2024-02-15T08:28:47;15.30;;;6.90;;
24157;SDS011;12316;50.904;4.200;2024-02-15T08:31:12;15.63;;;7.13;;
24157;SDS011;12316;50.904;4.200;2024-02-15T08:33:41;16.20;;;7.32;;
24157;SDS011;12316;50.904;4.200;2024-02-15T08:36:10;18.30;;;7.95;;
24157;SDS011;12316;50.904;4.200;2024-02-15T08:38:38;16.13;;;7.57;;
24157;SDS011;12316;50.904;4.200;2024-02-15T08:41:04;17.65;;;7.63;;
24157;SDS011;12316;50.904;4.200;2024-02-15T08:43:31;19.50;;;7.95;;
24157;SDS011;12316;50.904;4.200;2024-02-15T08:46:00;19.70;;;7.82;;
24157;SDS011;12316;50.904;4.200;2024-02-15T08:48:32;15.75;;;6.95;;
24157;SDS011;12316;50.904;4.200;2024-02-15T08:50:58;16.38;;;7.25;;
24157;SDS011;12316;50.904;4.200;2024-02-15T08:53:24;16.60;;;7.18;;
24157;SDS011;12316;50.904;4.200;2024-02-15T08:55:49;16.88;;;6.80;;
24157;SDS011;12316;50.904;4.200;2024-02-15T08:58:17;15.95;;;6.57;;
24157;SDS011;12316;50.904;4.200;2024-02-15T09:00:44;12.15;;;6.30;;
24157;SDS011;12316;50.904;4.200;2024-02-15T09:03:10;14.65;;;6.40;;
24157;SDS011;12316;50.904;4.200;2024-02-15T09:05:37;12.85;;;5.95;;
24157;SDS011;12316;50.904;4.200;2024-02-15T09:08:03;13.93;;;6.40;;
24157;SDS011;12316;50.904;4.200;2024-02-15T09:10:32;16.25;;;7.05;;
24157;SDS011;12316;50.904;4.200;2024-02-15T09:12:57;13.63;;;6.32;;
24157;SDS011;12316;50.904;4.200;2024-02-15T09:15:23;12.68;;;5.38;;
24157;SDS011;12316;50.904;4.200;2024-02-15T09:17:49;13.68;;;4.97;;
24157;SDS011;12316;50.904;4.200;2024-02-15T09:20:16;10.13;;;4.65;;
24157;SDS011;12316;50.904;4.200;2024-02-15T09:25:15;11.65;;;4.88;;
24157;SDS011;12316;50.904;4.200;2024-02-15T09:27:41;9.85;;;4.82;;
24157;SDS011;12316;50.904;4.200;2024-02-15T09:30:07;13.00;;;5.05;;
24157;SDS011;12316;50.904;4.200;2024-02-15T09:32:35;10.90;;;4.25;;
24157;SDS011;12316;50.904;4.200;2024-02-15T09:35:02;12.48;;;4.32;;
24157;SDS011;12316;50.904;4.200;2024-02-15T09:37:27;11.10;;;4.13;;
24157;SDS011;12316;50.904;4.200;2024-02-15T09:39:53;12.48;;;3.72;;
24157;SDS011;12316;50.904;4.200;2024-02-15T09:42:20;9.55;;;3.58;;
24157;SDS011;12316;50.904;4.200;2024-02-15T09:44:46;7.95;;;3.65;;
24157;SDS011;12316;50.904;4.200;2024-02-15T09:47:12;9.75;;;3.55;;
24157;SDS011;12316;50.904;4.200;2024-02-15T09:49:40;7.40;;;3.50;;
24157;SDS011;12316;50.904;4.200;2024-02-15T09:52:07;6.78;;;3.28;;
24157;SDS011;12316;50.904;4.200;2024-02-15T09:54:42;8.20;;;3.78;;
24157;SDS011;12316;50.904;4.200;2024-02-15T09:57:09;6.30;;;3.13;;
24157;SDS011;12316;50.904;4.200;2024-02-15T09:59:36;9.20;;;2.88;;
24157;SDS011;12316;50.904;4.200;2024-02-15T10:02:02;8.73;;;2.90;;
24157;SDS011;12316;50.904;4.200;2024-02-15T10:04:28;6.68;;;3.00;;
24157;SDS011;12316;50.904;4.200;2024-02-15T10:06:55;5.22;;;2.53;;
24157;SDS011;12316;50.904;4.200;2024-02-15T10:09:24;7.82;;;2.97;;
24157;SDS011;12316;50.904;4.200;2024-02-15T10:11:57;6.38;;;2.40;;
24157;SDS011;12316;50.904;4.200;2024-02-15T10:14:24;7.68;;;2.00;;
24157;SDS011;12316;50.904;4.200;2024-02-15T10:16:53;6.25;;;1.88;;
24157;SDS011;12316;50.904;4.200;2024-02-15T10:19:22;6.07;;;2.08;;
24157;SDS011;12316;50.904;4.200;2024-02-15T10:21:52;4.63;;;1.90;;
24157;SDS011;12316;50.904;4.200;2024-02-15T10:24:22;5.78;;;1.75;;
24157;SDS011;12316;50.904;4.200;2024-02-15T10:26:50;5.07;;;1.77;;
24157;SDS011;12316;50.904;4.200;2024-02-15T10:29:16;4.35;;;1.70;;
24157;SDS011;12316;50.904;4.200;2024-02-15T10:31:54;4.50;;;1.63;;
24157;SDS011;12316;50.904;4.200;2024-02-15T10:34:22;5.65;;;1.63;;
24157;SDS011;12316;50.904;4.200;2024-02-15T10:36:49;5.18;;;1.77;;
24157;SDS011;12316;50.904;4.200;2024-02-15T10:39:18;5.30;;;1.70;;
24157;SDS011;12316;50.904;4.200;2024-02-15T10:41:45;5.28;;;2.10;;
24157;SDS011;12316;50.904;4.200;2024-02-15T10:44:13;3.67;;;2.10;;
24157;SDS011;12316;50.904;4.200;2024-02-15T10:46:45;4.78;;;2.08;;
24157;SDS011;12316;50.904;4.200;2024-02-15T10:49:15;6.65;;;1.67;;
24157;SDS011;12316;50.904;4.200;2024-02-15T10:51:45;4.85;;;1.77;;
24157;SDS011;12316;50.904;4.200;2024-02-15T10:54:16;4.45;;;1.90;;
24157;SDS011;12316;50.904;4.200;2024-02-15T10:56:50;5.10;;;1.90;;
24157;SDS011;12316;50.904;4.200;2024-02-15T10:59:27;3.25;;;1.40;;
24157;SDS011;12316;50.904;4.200;2024-02-15T11:01:58;4.30;;;1.95;;
24157;SDS011;12316;50.904;4.200;2024-02-15T11:04:25;6.90;;;2.10;;
24157;SDS011;12316;50.904;4.200;2024-02-15T11:06:58;4.22;;;1.83;;
24157;SDS011;12316;50.904;4.200;2024-02-15T11:09:26;4.13;;;1.90;;
24157;SDS011;12316;50.904;4.200;2024-02-15T11:11:54;5.57;;;1.95;;
24157;SDS011;12316;50.904;4.200;2024-02-15T11:16:54;4.95;;;1.52;;
24157;SDS011;12316;50.904;4.200;2024-02-15T11:22:08;2.83;;;1.30;;
24157;SDS011;12316;50.904;4.200;2024-02-15T11:24:35;5.00;;;1.42;;
24157;SDS011;12316;50.904;4.200;2024-02-15T11:27:02;5.88;;;1.70;;
24157;SDS011;12316;50.904;4.200;2024-02-15T11:37:48;2.85;;;1.30;;
24157;SDS011;12316;50.904;4.200;2024-02-15T11:42:54;3.55;;;1.25;;
24157;SDS011;12316;50.904;4.200;2024-02-15T11:45:24;3.17;;;1.80;;
24157;SDS011;12316;50.904;4.200;2024-02-15T11:47:52;5.00;;;1.60;;
24157;SDS011;12316;50.904;4.200;2024-02-15T11:50:20;2.70;;;1.30;;
24157;SDS011;12316;50.904;4.200;2024-02-15T11:52:49;4.10;;;1.65;;
24157;SDS011;12316;50.904;4.200;2024-02-15T11:55:20;3.53;;;1.42;;
24157;SDS011;12316;50.904;4.200;2024-02-15T11:57:56;3.20;;;1.33;;
24157;SDS011;12316;50.904;4.200;2024-02-15T12:00:30;2.70;;;1.30;;
24157;SDS011;12316;50.904;4.200;2024-02-15T12:03:16;4.20;;;1.50;;
24157;SDS011;12316;50.904;4.200;2024-02-15T12:06:01;3.95;;;1.25;;
24157;SDS011;12316;50.904;4.200;2024-02-15T12:08:46;2.72;;;1.23;;
24157;SDS011;12316;50.904;4.200;2024-02-15T12:11:32;3.15;;;1.50;;
24157;SDS011;12316;50.904;4.200;2024-02-15T12:14:17;3.50;;;1.05;;
24157;SDS011;12316;50.904;4.200;2024-02-15T12:17:02;3.88;;;1.23;;
24157;SDS011;12316;50.904;4.200;2024-02-15T12:19:50;1.95;;;1.20;;
24157;SDS011;12316;50.904;4.200;2024-02-15T12:22:31;3.22;;;1.38;;
24157;SDS011;12316;50.904;4.200;2024-02-15T12:25:00;3.97;;;1.25;;
24157;SDS011;12316;50.904;4.200;2024-02-15T12:27:38;2.67;;;1.30;;
24157;SDS011;12316;50.904;4.200;2024-02-15T12:30:04;3.00;;;1.23;;
24157;SDS011;12316;50.904;4.200;2024-02-15T12:32:31;3.22;;;1.30;;
24157;SDS011;12316;50.904;4.200;2024-02-15T12:35:11;3.67;;;1.48;;
24157;SDS011;12316;50.904;4.200;2024-02-15T12:37:47;3.28;;;1.30;;
24157;SDS011;12316;50.904;4.200;2024-02-15T12:40:19;3.28;;;1.42;;
24157;SDS011;12316;50.904;4.200;2024-02-15T12:42:47;3.47;;;1.38;;
24157;SDS011;12316;50.904;4.200;2024-02-15T12:45:16;2.50;;;1.45;;
24157;SDS011;12316;50.904;4.200;2024-02-15T12:47:45;3.78;;;1.40;;
24157;SDS011;12316;50.904;4.200;2024-02-15T12:50:15;2.05;;;1.20;;
24157;SDS011;12316;50.904;4.200;2024-02-15T12:52:42;2.58;;;1.38;;
24157;SDS011;12316;50.904;4.200;2024-02-15T12:57:36;2.50;;;1.23;;
24157;SDS011;12316;50.904;4.200;2024-02-15T13:00:05;3.33;;;1.17;;
24157;SDS011;12316;50.904;4.200;2024-02-15T13:02:38;6.80;;;1.45;;
24157;SDS011;12316;50.904;4.200;2024-02-15T13:05:04;3.08;;;1.17;;
24157;SDS011;12316;50.904;4.200;2024-02-15T13:07:30;2.33;;;0.93;;
24157;SDS011;12316;50.904;4.200;2024-02-15T13:09:56;2.30;;;1.33;;
24157;SDS011;12316;50.904;4.200;2024-02-15T13:12:22;2.58;;;1.27;;
24157;SDS011;12316;50.904;4.200;2024-02-15T13:14:48;3.35;;;1.23;;
24157;SDS011;12316;50.904;4.200;2024-02-15T13:17:15;1.40;;;0.90;;
24157;SDS011;12316;50.904;4.200;2024-02-15T13:19:48;3.83;;;1.15;;
24157;SDS011;12316;50.904;4.200;2024-02-15T13:22:16;7.05;;;1.33;;
24157;SDS011;12316;50.904;4.200;2024-02-15T13:24:43;3.92;;;1.48;;
24157;SDS011;12316;50.904;4.200;2024-02-15T13:27:09;4.65;;;1.52;;
24157;SDS011;12316;50.904;4.200;2024-02-15T13:29:37;2.38;;;1.42;;
24157;SDS011;12316;50.904;4.200;2024-02-15T13:32:05;3.50;;;1.50;;
24157;SDS011;12316;50.904;4.200;2024-02-15T13:34:31;3.67;;;1.38;;
24157;SDS011;12316;50.904;4.200;2024-02-15T13:36:58;2.55;;;1.30;;
24157;SDS011;12316;50.904;4.200;2024-02-15T13:39:26;4.97;;;1.45;;
24157;SDS011;12316;50.904;4.200;2024-02-15T13:41:57;3.30;;;1.10;;
24157;SDS011;12316;50.904;4.200;2024-02-15T13:44:26;5.00;;;1.50;;
24157;SDS011;12316;50.904;4.200;2024-02-15T13:46:52;2.55;;;1.60;;
24157;SDS011;12316;50.904;4.200;2024-02-15T13:49:20;4.72;;;1.73;;
24157;SDS011;12316;50.904;4.200;2024-02-15T13:51:46;3.97;;;1.70;;
24157;SDS011;12316;50.904;4.200;2024-02-15T13:54:12;5.65;;;1.80;;
24157;SDS011;12316;50.904;4.200;2024-02-15T13:56:38;5.00;;;1.85;;
24157;SDS011;12316;50.904;4.200;2024-02-15T13:59:04;3.40;;;2.00;;
24157;SDS011;12316;50.904;4.200;2024-02-15T14:01:31;5.10;;;1.95;;
24157;SDS011;12316;50.904;4.200;2024-02-15T14:03:57;3.13;;;1.75;;
24157;SDS011;12316;50.904;4.200;2024-02-15T14:06:23;3.83;;;1.67;;
24157;SDS011;12316;50.904;4.200;2024-02-15T14:08:48;4.85;;;1.40;;
24157;SDS011;12316;50.904;4.200;2024-02-15T14:11:15;2.15;;;1.40;;
24157;SDS011;12316;50.904;4.200;2024-02-15T14:13:42;3.33;;;1.23;;
24157;SDS011;12316;50.904;4.200;2024-02-15T14:16:08;3.08;;;1.23;;
24157;SDS011;12316;50.904;4.200;2024-02-15T14:18:33;1.98;;;1.23;;
24157;SDS011;12316;50.904;4.200;2024-02-15T14:20:59;3.97;;;1.15;;
24157;SDS011;12316;50.904;4.200;2024-02-15T14:23:25;2.58;;;0.80;;
24157;SDS011;12316;50.904;4.200;2024-02-15T14:25:52;3.13;;;1.20;;
24157;SDS011;12316;50.904;4.200;2024-02-15T14:28:19;3.75;;;1.20;;
24157;SDS011;12316;50.904;4.200;2024-02-15T14:30:45;2.13;;;0.88;;
24157;SDS011;12316;50.904;4.200;2024-02-15T14:33:29;1.85;;;0.98;;
24157;SDS011;12316;50.904;4.200;2024-02-15T14:35:55;2.70;;;1.00;;
24157;SDS011;12316;50.904;4.200;2024-02-15T14:38:21;3.47;;;1.10;;
24157;SDS011;12316;50.904;4.200;2024-02-15T14:40:48;4.00;;;1.10;;
24157;SDS011;12316;50.904;4.200;2024-02-15T14:43:21;3.03;;;1.05;;
24157;SDS011;12316;50.904;4.200;2024-02-15T14:45:48;2.08;;;1.20;;
24157;SDS011;12316;50.904;4.200;2024-02-15T14:48:15;1.40;;;0.85;;
24157;SDS011;12316;50.904;4.200;2024-02-15T14:50:43;2.25;;;0.98;;
24157;SDS011;12316;50.904;4.200;2024-02-15T14:53:12;2.85;;;0.93;;
24157;SDS011;12316;50.904;4.200;2024-02-15T14:55:38;2.72;;;1.08;;
24157;SDS011;12316;50.904;4.200;2024-02-15T14:58:04;3.15;;;1.27;;
24157;SDS011;12316;50.904;4.200;2024-02-15T15:00:33;1.48;;;1.02;;
24157;SDS011;12316;50.904;4.200;2024-02-15T15:02:59;3.17;;;1.20;;
24157;SDS011;12316;50.904;4.200;2024-02-15T15:05:26;7.68;;;1.60;;
24157;SDS011;12316;50.904;4.200;2024-02-15T15:08:11;3.45;;;1.27;;